Time;durP1;ratioP1;P1;durP2;ratioP2;P2;SDS_P1;SDS_P2;PMS_P1;PMS_P2;Temp;Humidity;BMP_temperature;BMP_pressure;BME280_temperature;BME280_humidity;BME280_pressure;Samples;Min_cycle;Max_cycle;Signal;HPM_P1;HPM_P2
2021/05/07 00:01:08;;;;;;;2.67;0.82;;;8.50;99.90;;;;;;5053357;28;20434;-73
2021/05/07 00:03:34;;;;;;;2.97;1.00;;;8.50;99.90;;;;;;5035249;28;20021;-73
2021/05/07 00:06:03;;;;;;;2.20;0.93;;;8.50;99.90;;;;;;5053176;28;20032;-73
2021/05/07 00:08:36;;;;;;;2.35;0.75;;;8.60;99.90;;;;;;5052605;28;20056;-73
2021/05/07 00:11:08;;;;;;;4.40;1.05;;;8.60;99.90;;;;;;5053078;28;20137;-73
2021/05/07 00:13:35;;;;;;;4.03;1.23;;;8.60;99.90;;;;;;5053072;28;20032;-73
2021/05/07 00:16:01;;;;;;;3.25;0.95;;;8.60;99.90;;;;;;5035318;28;20036;-72
2021/05/07 00:18:27;;;;;;;2.72;1.20;;;8.60;99.90;;;;;;5018645;28;20150;-72
2021/05/07 00:20:54;;;;;;;5.75;0.98;;;8.50;99.90;;;;;;5052914;28;20040;-73
2021/05/07 00:23:20;;;;;;;1.85;0.82;;;8.60;99.90;;;;;;5052826;28;20036;-72
2021/05/07 00:25:46;;;;;;;0.90;0.70;;;8.60;99.90;;;;;;5052731;28;20029;-73
2021/05/07 00:28:14;;;;;;;1.58;0.95;;;8.50;99.90;;;;;;5052873;28;20028;-73
2021/05/07 00:30:40;;;;;;;1.77;0.82;;;8.50;99.90;;;;;;5052773;28;20099;-72
2021/05/07 00:33:07;;;;;;;2.08;0.77;;;8.40;99.90;;;;;;5034900;28;20032;-73
2021/05/07 00:35:33;;;;;;;1.35;0.70;;;8.40;99.90;;;;;;5052644;28;20033;-73
2021/05/07 00:38:00;;;;;;;1.20;0.70;;;8.40;99.90;;;;;;5034729;28;20032;-72
2021/05/07 00:40:26;;;;;;;2.17;1.00;;;8.30;99.90;;;;;;5052910;28;20404;-73
2021/05/07 00:42:53;;;;;;;3.80;1.20;;;8.20;99.90;;;;;;5052727;28;20139;-72
2021/05/07 00:45:19;;;;;;;5.78;1.65;;;8.20;99.90;;;;;;5052662;28;20109;-73
2021/05/07 00:47:59;;;;;;;3.65;1.52;;;8.20;99.90;;;;;;5052501;28;20032;-73
2021/05/07 00:50:36;;;;;;;3.40;1.52;;;8.20;99.90;;;;;;5052523;28;20479;-73
2021/05/07 00:53:03;;;;;;;1.00;0.80;;;8.20;99.90;;;;;;5052514;28;20025;-72
2021/05/07 00:55:30;;;;;;;1.42;0.57;;;8.20;99.90;;;;;;5034419;28;20078;-73
2021/05/07 00:57:56;;;;;;;1.60;0.82;;;8.20;99.90;;;;;;5052287;28;20024;-73
2021/05/07 01:00:24;;;;;;;1.08;0.70;;;8.30;99.90;;;;;;5052278;28;20104;-72
2021/05/07 01:02:51;;;;;;;1.92;0.70;;;8.20;99.90;;;;;;5052690;28;20501;-73
2021/05/07 01:05:17;;;;;;;2.90;0.75;;;8.20;99.90;;;;;;5052229;28;20023;-73
2021/05/07 01:07:43;;;;;;;0.82;0.60;;;8.20;99.90;;;;;;5052190;28;20013;-73
2021/05/07 01:10:11;;;;;;;2.00;0.68;;;8.20;99.90;;;;;;5034502;28;20021;-73
2021/05/07 01:12:39;;;;;;;2.65;0.77;;;8.20;99.90;;;;;;5052081;28;20035;-73
2021/05/07 01:15:22;;;;;;;4.15;0.60;;;8.20;99.90;;;;;;5052145;28;20033;-73
2021/05/07 01:17:54;;;;;;;1.48;0.80;;;8.10;99.90;;;;;;5034303;28;20077;-73
2021/05/07 01:20:26;;;;;;;2.60;0.63;;;8.20;99.90;;;;;;5033371;28;20083;-73
2021/05/07 01:22:55;;;;;;;1.90;0.57;;;8.20;99.90;;;;;;5034148;28;20267;-72
2021/05/07 01:25:23;;;;;;;0.65;0.65;;;8.20;99.90;;;;;;5051977;28;20031;-72
2021/05/07 01:27:51;;;;;;;1.00;0.70;;;8.20;99.90;;;;;;5051876;28;20071;-73
2021/05/07 01:30:22;;;;;;;1.75;0.75;;;8.20;99.90;;;;;;5051845;28;20022;-73
2021/05/07 01:32:49;;;;;;;4.63;0.75;;;8.20;99.90;;;;;;5051855;28;20017;-73
2021/05/07 01:35:23;;;;;;;1.55;0.73;;;8.10;99.90;;;;;;5051866;28;20028;-73
2021/05/07 01:37:52;;;;;;;4.60;1.27;;;8.10;99.90;;;;;;5051943;28;20017;-72
2021/05/07 01:40:25;;;;;;;2.13;0.70;;;8.10;99.90;;;;;;5051893;28;20048;-73
2021/05/07 01:42:52;;;;;;;2.33;0.77;;;8.20;99.90;;;;;;5051725;28;20059;-73
2021/05/07 01:45:20;;;;;;;1.95;0.70;;;8.20;99.90;;;;;;5033694;28;20048;-73
2021/05/07 01:47:46;;;;;;;1.20;0.68;;;8.20;99.90;;;;;;5051761;28;20025;-73
2021/05/07 01:50:15;;;;;;;1.08;0.40;;;8.20;99.90;;;;;;5051934;28;20362;-73
2021/05/07 01:52:41;;;;;;;6.32;0.70;;;8.10;99.90;;;;;;5051705;28;20028;-73
2021/05/07 01:55:09;;;;;;;1.00;0.73;;;8.10;99.90;;;;;;5051615;28;20017;-73
2021/05/07 01:57:36;;;;;;;0.95;0.70;;;8.10;99.90;;;;;;5033868;28;20021;-72
2021/05/07 02:00:10;;;;;;;3.28;1.10;;;8.10;99.90;;;;;;5051672;28;20025;-73
2021/05/07 02:02:36;;;;;;;1.75;0.70;;;8.20;99.90;;;;;;5051575;28;20052;-73
2021/05/07 02:05:07;;;;;;;1.98;0.75;;;8.20;99.90;;;;;;5034090;28;20060;-73
2021/05/07 02:07:33;;;;;;;6.00;1.67;;;8.20;99.90;;;;;;5033917;28;20071;-73
2021/05/07 02:09:59;;;;;;;1.95;0.80;;;8.30;99.90;;;;;;5051531;28;20013;-73
2021/05/07 02:12:25;;;;;;;3.17;1.02;;;8.20;99.90;;;;;;5051472;28;20092;-73
2021/05/07 02:14:53;;;;;;;1.98;0.70;;;8.20;99.90;;;;;;5051437;28;20017;-72
2021/05/07 02:17:18;;;;;;;2.83;0.93;;;8.20;99.90;;;;;;5033630;28;20037;-73
2021/05/07 02:19:45;;;;;;;11.57;1.95;;;8.30;99.90;;;;;;5033492;28;20551;-72
2021/05/07 02:22:10;;;;;;;4.03;1.08;;;8.30;99.90;;;;;;5033655;28;20492;-72
2021/05/07 02:24:36;;;;;;;1.77;0.70;;;8.30;99.90;;;;;;5033508;28;20028;-73
2021/05/07 02:27:03;;;;;;;6.03;0.90;;;8.30;99.90;;;;;;5051325;28;20017;-73
2021/05/07 02:29:30;;;;;;;2.97;1.15;;;8.30;99.90;;;;;;5051326;28;20021;-73
2021/05/07 02:31:56;;;;;;;2.33;0.80;;;8.30;99.90;;;;;;5052989;28;20482;-73
2021/05/07 02:34:21;;;;;;;3.38;1.10;;;8.30;99.90;;;;;;5037215;28;20052;-73
2021/05/07 02:36:47;;;;;;;3.38;0.82;;;8.30;99.90;;;;;;5037140;28;20040;-73
2021/05/07 02:39:15;;;;;;;1.48;0.80;;;8.30;99.90;;;;;;5054822;28;20087;-73
2021/05/07 02:41:43;;;;;;;1.67;1.02;;;8.30;99.90;;;;;;5036960;28;20492;-72
2021/05/07 02:44:09;;;;;;;1.10;1.00;;;8.30;99.90;;;;;;5054613;28;20036;-73
2021/05/07 02:46:36;;;;;;;1.80;0.80;;;8.20;99.90;;;;;;5077323;22;20452;-72
2021/05/07 02:49:04;;;;;;;1.63;0.90;;;8.20;99.90;;;;;;5074735;28;20024;-73
2021/05/07 02:51:30;;;;;;;1.17;0.80;;;8.20;99.90;;;;;;5074774;28;20493;-73
2021/05/07 02:53:56;;;;;;;4.00;0.80;;;8.20;99.90;;;;;;5056994;28;20028;-73
2021/05/07 02:56:23;;;;;;;2.97;1.00;;;8.20;99.90;;;;;;5074694;28;20095;-73
2021/05/07 02:58:48;;;;;;;2.47;0.77;;;8.20;99.90;;;;;;5056632;28;20032;-73
2021/05/07 03:01:14;;;;;;;3.45;1.00;;;8.10;99.90;;;;;;5074651;28;20025;-73
2021/05/07 03:03:40;;;;;;;3.42;1.70;;;8.10;99.90;;;;;;5039934;28;20028;-73
2021/05/07 03:06:06;;;;;;;5.28;0.82;;;8.10;99.90;;;;;;5056502;28;20074;-73
2021/05/07 03:08:31;;;;;;;2.67;0.95;;;8.10;99.90;;;;;;5074433;28;20035;-73
2021/05/07 03:10:57;;;;;;;3.70;1.63;;;8.10;99.90;;;;;;5056483;28;20024;-73
2021/05/07 03:13:23;;;;;;;6.63;0.82;;;8.00;99.90;;;;;;5056484;28;20028;-73
2021/05/07 03:15:49;;;;;;;4.30;0.95;;;8.00;99.90;;;;;;5074148;28;20108;-73
2021/05/07 03:18:16;;;;;;;5.80;0.90;;;7.90;99.90;;;;;;5056394;28;20089;-73
2021/05/07 03:20:43;;;;;;;3.42;0.88;;;7.90;99.90;;;;;;5074180;28;20032;-73
2021/05/07 03:23:09;;;;;;;3.58;0.98;;;7.90;99.90;;;;;;5074090;28;20182;-73
2021/05/07 03:25:35;;;;;;;5.90;1.27;;;7.90;99.90;;;;;;5056251;28;20025;-73
2021/05/07 03:28:02;;;;;;;6.68;0.90;;;8.00;99.90;;;;;;5056032;28;20020;-73
2021/05/07 03:30:27;;;;;;;3.20;1.05;;;7.90;99.90;;;;;;5056138;28;20017;-73
2021/05/07 03:32:53;;;;;;;1.88;1.13;;;8.00;99.90;;;;;;5073958;28;20024;-73
2021/05/07 03:35:19;;;;;;;5.43;1.60;;;7.90;99.90;;;;;;5056088;28;20063;-73
2021/05/07 03:37:45;;;;;;;1.40;0.70;;;7.90;99.90;;;;;;5055854;28;20017;-73
2021/05/07 03:40:12;;;;;;;1.92;0.90;;;7.90;99.90;;;;;;5055802;28;20033;-73
2021/05/07 03:42:38;;;;;;;3.42;0.90;;;7.90;99.90;;;;;;5055234;28;20021;-73
2021/05/07 03:45:04;;;;;;;2.63;0.70;;;7.90;99.90;;;;;;5055323;28;20043;-73
2021/05/07 03:47:30;;;;;;;5.35;2.00;;;8.00;99.90;;;;;;5038913;28;20070;-72
2021/05/07 03:49:56;;;;;;;3.30;1.58;;;7.90;99.90;;;;;;5055943;28;20054;-73
2021/05/07 03:52:22;;;;;;;3.45;1.00;;;7.90;99.90;;;;;;5055618;28;20082;-73
2021/05/07 03:54:48;;;;;;;0.77;0.70;;;7.90;99.90;;;;;;5055884;28;20025;-73
2021/05/07 03:57:13;;;;;;;1.33;0.73;;;7.90;99.90;;;;;;5055584;28;20024;-73
2021/05/07 03:59:39;;;;;;;3.15;1.00;;;8.00;99.90;;;;;;5055368;28;20025;-73
2021/05/07 04:02:05;;;;;;;4.13;1.17;;;8.00;99.90;;;;;;5055379;28;20024;-73
2021/05/07 04:04:32;;;;;;;2.90;1.27;;;7.90;99.90;;;;;;5073328;28;20028;-73
2021/05/07 04:06:58;;;;;;;5.10;1.27;;;7.80;99.90;;;;;;5073189;28;20016;-73
2021/05/07 04:09:47;;;;;;;2.45;1.20;;;7.90;99.90;;;;;;5055228;28;20027;-73
2021/05/07 04:12:16;;;;;;;3.63;1.30;;;7.90;99.90;;;;;;5055021;28;20021;-73
2021/05/07 04:14:42;;;;;;;1.10;0.80;;;7.90;99.90;;;;;;5072998;28;20025;-73
2021/05/07 04:17:08;;;;;;;1.85;1.05;;;7.90;99.90;;;;;;5072941;28;20368;-73
2021/05/07 04:19:34;;;;;;;2.95;1.15;;;7.90;99.90;;;;;;5055030;28;20028;-73
2021/05/07 04:22:00;;;;;;;5.57;1.20;;;7.90;99.90;;;;;;5055016;28;20033;-73
2021/05/07 04:24:26;;;;;;;5.32;0.90;;;8.00;99.90;;;;;;5072901;28;20028;-73
2021/05/07 04:26:54;;;;;;;2.33;1.40;;;8.20;99.90;;;;;;5054914;28;20021;-74
2021/05/07 04:29:21;;;;;;;3.28;1.40;;;8.20;99.90;;;;;;5038234;28;20078;-74
2021/05/07 04:31:47;;;;;;;2.88;1.30;;;8.20;99.90;;;;;;5072825;28;20027;-73
2021/05/07 04:34:13;;;;;;;5.50;1.75;;;8.30;99.90;;;;;;5072732;28;20028;-73
2021/05/07 04:36:40;;;;;;;9.02;1.30;;;8.30;99.90;;;;;;5072616;28;20035;-73
2021/05/07 04:39:06;;;;;;;8.80;2.40;;;8.30;99.90;;;;;;5072709;28;20475;-73
2021/05/07 04:41:31;;;;;;;2.85;1.40;;;8.30;99.90;;;;;;5054781;28;20081;-73
2021/05/07 04:43:57;;;;;;;5.05;0.98;;;8.40;99.90;;;;;;5072691;28;20032;-72
2021/05/07 04:46:23;;;;;;;3.83;0.80;;;8.20;99.90;;;;;;5054757;28;20048;-73
2021/05/07 04:48:49;;;;;;;6.35;1.27;;;8.10;99.90;;;;;;5072469;28;20027;-73
2021/05/07 04:51:15;;;;;;;4.60;1.33;;;8.20;99.90;;;;;;5072315;28;20034;-71
2021/05/07 04:53:40;;;;;;;3.42;1.70;;;8.30;99.90;;;;;;5054500;28;20029;-71
2021/05/07 04:56:06;;;;;;;2.65;1.10;;;8.40;99.90;;;;;;5054019;28;20064;-71
2021/05/07 04:58:32;;;;;;;7.40;1.10;;;8.30;99.90;;;;;;5054392;28;20439;-70
2021/05/07 05:00:58;;;;;;;5.38;1.20;;;8.30;99.90;;;;;;5072297;28;20495;-71
2021/05/07 05:03:24;;;;;;;3.40;1.70;;;8.30;99.90;;;;;;5072163;28;20037;-71
2021/05/07 05:05:49;;;;;;;2.25;1.20;;;8.30;99.90;;;;;;5072303;28;20028;-71
2021/05/07 05:08:25;;;;;;;15.50;1.85;;;8.30;99.90;;;;;;5072266;28;20054;-71
2021/05/07 05:10:58;;;;;;;4.35;1.58;;;8.40;99.90;;;;;;5072157;28;20032;-71
2021/05/07 05:13:24;;;;;;;5.15;1.40;;;8.60;99.90;;;;;;5072235;28;20025;-71
2021/05/07 05:15:55;;;;;;;4.97;1.00;;;8.70;99.90;;;;;;5054064;28;20123;-70
2021/05/07 05:18:35;;;;;;;8.10;1.52;;;8.80;99.90;;;;;;5054161;28;20021;-71
2021/05/07 05:21:06;;;;;;;9.70;1.55;;;8.80;99.90;;;;;;5072100;28;20437;-71
2021/05/07 05:23:32;;;;;;;2.67;1.08;;;8.80;99.90;;;;;;5053463;28;20086;-71
2021/05/07 05:25:58;;;;;;;4.85;1.33;;;8.70;99.90;;;;;;5036007;28;20024;-70
2021/05/07 05:28:25;;;;;;;2.40;1.38;;;8.50;99.90;;;;;;5056729;28;20020;-71
2021/05/07 05:30:51;;;;;;;2.97;1.25;;;8.30;99.90;;;;;;5061705;28;20025;-71
2021/05/07 05:33:17;;;;;;;5.35;0.90;;;8.20;99.90;;;;;;5058256;28;20029;-71
2021/05/07 05:35:48;;;;;;;5.07;0.95;;;8.00;99.90;;;;;;5058432;28;20549;-71
2021/05/07 05:38:14;;;;;;;2.63;0.88;;;8.00;99.90;;;;;;5036303;28;20042;-71
2021/05/07 05:40:43;;;;;;;5.95;1.02;;;8.00;99.90;;;;;;5054298;28;20038;-71
2021/05/07 05:43:09;;;;;;;1.83;0.75;;;7.80;99.90;;;;;;5059993;28;20059;-71
2021/05/07 05:45:35;;;;;;;1.33;0.82;;;7.90;99.90;;;;;;5053605;28;20516;-71
2021/05/07 05:48:00;;;;;;;0.90;0.80;;;7.90;99.90;;;;;;5050223;28;20029;-71
2021/05/07 05:50:26;;;;;;;2.83;1.65;;;7.90;99.90;;;;;;5064390;28;20028;-71
2021/05/07 05:52:52;;;;;;;3.97;1.80;;;7.80;99.90;;;;;;5062302;28;20024;-71
2021/05/07 05:55:20;;;;;;;1.73;1.20;;;7.70;99.90;;;;;;5062151;28;20053;-71
2021/05/07 05:57:46;;;;;;;2.10;0.68;;;7.60;99.90;;;;;;5046642;28;20020;-70
2021/05/07 06:00:13;;;;;;;4.30;0.82;;;7.40;99.90;;;;;;5038896;28;20029;-71
2021/05/07 06:02:38;;;;;;;1.20;0.60;;;7.40;99.90;;;;;;5052918;28;20017;-71
2021/05/07 06:05:10;;;;;;;1.00;0.68;;;7.40;99.90;;;;;;5051885;28;20145;-71
2021/05/07 06:07:36;;;;;;;1.80;0.90;;;7.40;99.90;;;;;;5041179;28;20433;-71
2021/05/07 06:10:03;;;;;;;0.70;0.50;;;7.50;99.90;;;;;;5066431;28;20390;-71
2021/05/07 06:12:29;;;;;;;2.17;0.90;;;7.60;99.90;;;;;;5060215;28;20078;-71
2021/05/07 06:14:55;;;;;;;3.15;0.90;;;7.70;99.90;;;;;;5074265;28;20028;-71
2021/05/07 06:17:21;;;;;;;4.03;0.95;;;7.60;99.90;;;;;;5074430;28;20103;-71
2021/05/07 06:19:47;;;;;;;7.15;1.73;;;7.60;99.90;;;;;;5057631;28;20116;-72
2021/05/07 06:22:12;;;;;;;2.65;0.82;;;7.60;99.90;;;;;;5067060;28;20062;-71
2021/05/07 06:24:38;;;;;;;3.03;0.60;;;7.50;99.90;;;;;;5074594;28;20111;-71
2021/05/07 06:27:04;;;;;;;1.75;0.60;;;7.70;99.90;;;;;;5059839;28;20111;-72
2021/05/07 06:29:30;;;;;;;2.03;0.65;;;7.60;99.90;;;;;;5073568;28;20052;-72
2021/05/07 06:31:56;;;;;;;11.23;1.58;;;7.60;99.90;;;;;;5040238;28;20425;-71
2021/05/07 06:34:21;;;;;;;17.80;1.42;;;7.70;99.90;;;;;;5055602;28;20043;-72
2021/05/07 06:36:48;;;;;;;199.23;13.57;;;7.60;99.90;;;;;;5073523;28;20029;-72
2021/05/07 06:39:14;;;;;;;38.55;2.90;;;7.50;99.90;;;;;;5073531;28;20465;-72
2021/05/07 06:41:40;;;;;;;32.67;3.15;;;7.50;99.90;;;;;;5040659;28;20032;-72
2021/05/07 06:44:06;;;;;;;47.65;3.33;;;7.70;99.90;;;;;;5072160;28;20040;-71
2021/05/07 06:46:32;;;;;;;2.45;1.20;;;7.80;99.90;;;;;;5073715;28;20158;-71
2021/05/07 06:48:58;;;;;;;26.98;2.35;;;7.80;99.90;;;;;;5073971;28;20036;-71
2021/05/07 06:51:26;;;;;;;2.58;0.85;;;7.80;99.90;;;;;;5074237;28;20028;-72
2021/05/07 06:53:52;;;;;;;7.32;0.88;;;7.80;99.90;;;;;;5058373;28;20044;-71
2021/05/07 06:56:21;;;;;;;1.50;1.10;;;7.70;99.90;;;;;;5070132;28;20020;-72
2021/05/07 06:58:49;;;;;;;1.42;0.80;;;7.70;99.90;;;;;;5072251;28;20074;-71
2021/05/07 07:01:15;;;;;;;6.43;2.38;;;7.70;99.90;;;;;;5073653;28;20025;-71
2021/05/07 07:03:42;;;;;;;2.58;1.08;;;7.80;99.90;;;;;;5072461;28;20039;-71
2021/05/07 07:06:08;;;;;;;5.13;1.35;;;7.80;99.90;;;;;;5050849;28;20110;-72
2021/05/07 07:08:34;;;;;;;3.08;1.10;;;7.70;99.90;;;;;;5073740;28;20483;-72
2021/05/07 07:11:00;;;;;;;4.50;1.20;;;7.80;99.90;;;;;;5073675;28;20021;-72
2021/05/07 07:13:27;;;;;;;3.70;1.42;;;7.80;99.90;;;;;;5073726;28;20037;-71
2021/05/07 07:15:53;;;;;;;4.55;1.20;;;8.10;99.90;;;;;;5052778;28;20021;-71
2021/05/07 07:18:22;;;;;;;3.40;1.52;;;8.00;99.90;;;;;;5068742;28;20032;-72
2021/05/07 07:20:48;;;;;;;2.20;1.08;;;8.00;99.90;;;;;;5073045;28;20035;-72
2021/05/07 07:23:15;;;;;;;2.00;1.00;;;8.10;99.90;;;;;;5070642;28;20503;-72
2021/05/07 07:25:42;;;;;;;3.80;1.10;;;8.30;99.90;;;;;;5060569;28;20488;-72
2021/05/07 07:28:08;;;;;;;9.55;3.35;;;8.40;99.90;;;;;;5059150;28;20024;-72
2021/05/07 07:30:35;;;;;;;7.07;3.80;;;8.60;99.90;;;;;;5063748;28;20017;-72
2021/05/07 07:33:01;;;;;;;1.58;1.10;;;8.60;99.90;;;;;;5072732;28;20365;-72
2021/05/07 07:35:27;;;;;;;2.80;0.90;;;8.50;99.90;;;;;;5069778;28;20025;-72
2021/05/07 07:37:54;;;;;;;3.33;0.95;;;8.60;99.90;;;;;;5072505;28;20422;-72
2021/05/07 07:40:20;;;;;;;42.88;3.35;;;8.70;99.90;;;;;;5071937;28;20086;-72
2021/05/07 07:42:46;;;;;;;7.65;1.30;;;8.70;99.90;;;;;;5073381;28;20032;-75
2021/05/07 07:45:13;;;;;;;14.15;1.55;;;8.70;99.90;;;;;;5063296;28;20027;-75
2021/05/07 07:47:39;;;;;;;6.53;1.92;;;8.70;99.90;;;;;;5062546;28;20840;-75
2021/05/07 07:50:07;;;;;;;4.57;1.20;;;8.80;99.90;;;;;;5073257;28;20020;-75
2021/05/07 07:52:34;;;;;;;4.53;1.30;;;9.10;99.90;;;;;;5072873;28;20070;-75
2021/05/07 07:55:00;;;;;;;7.20;1.77;;;9.10;99.90;;;;;;5045679;28;20036;-75
2021/05/07 07:57:29;;;;;;;3.83;1.38;;;9.50;99.90;;;;;;5070707;28;20111;-74
2021/05/07 07:59:55;;;;;;;5.97;1.02;;;9.80;99.90;;;;;;5059926;28;20098;-73
2021/05/07 08:02:22;;;;;;;3.75;1.38;;;9.90;99.90;;;;;;5070283;28;20116;-74
2021/05/07 08:04:48;;;;;;;7.03;1.40;;;10.00;99.90;;;;;;5060074;28;20488;-74
2021/05/07 08:07:14;;;;;;;4.82;1.08;;;10.20;99.90;;;;;;5071665;28;20021;-74
2021/05/07 08:09:40;;;;;;;3.92;1.00;;;10.70;99.90;;;;;;5064333;28;20031;-72
2021/05/07 08:12:07;;;;;;;5.13;1.20;;;11.00;99.90;;;;;;5068927;28;20028;-72
2021/05/07 08:14:33;;;;;;;5.07;1.23;;;11.30;99.90;;;;;;5072832;28;20057;-71
2021/05/07 08:17:00;;;;;;;4.03;1.63;;;11.20;99.90;;;;;;5042800;28;20560;-72
2021/05/07 08:19:26;;;;;;;5.22;1.23;;;11.10;99.90;;;;;;5064293;28;20024;-74
2021/05/07 08:21:52;;;;;;;2.83;1.17;;;11.30;99.90;;;;;;5063378;28;20049;-75
2021/05/07 08:24:19;;;;;;;10.63;1.27;;;11.40;99.90;;;;;;5060545;28;20487;-75
2021/05/07 08:26:45;;;;;;;6.63;1.10;;;11.90;99.90;;;;;;5058658;28;20383;-75
2021/05/07 08:29:10;;;;;;;8.20;1.30;;;12.10;99.90;;;;;;5069620;28;20091;-76
2021/05/07 08:31:36;;;;;;;1.42;0.95;;;12.00;99.90;;;;;;5057083;28;20488;-76
2021/05/07 08:34:02;;;;;;;3.63;1.20;;;11.90;99.90;;;;;;5071607;28;20505;-76
2021/05/07 08:36:28;;;;;;;17.42;2.70;;;11.70;99.90;;;;;;5053361;28;20543;-76
2021/05/07 08:38:54;;;;;;;5.07;1.55;;;11.60;99.90;;;;;;5066247;28;20021;-75
2021/05/07 08:41:19;;;;;;;6.00;1.70;;;11.30;98.90;;;;;;5061751;28;20033;-76
2021/05/07 08:43:46;;;;;;;7.32;1.13;;;11.30;99.90;;;;;;5058233;28;20031;-76
2021/05/07 08:46:12;;;;;;;19.65;2.70;;;11.20;99.90;;;;;;5058387;28;20028;-75
2021/05/07 08:48:39;;;;;;;11.88;1.58;;;11.20;99.90;;;;;;5052334;28;20012;-76
2021/05/07 08:51:05;;;;;;;11.57;2.55;;;11.30;99.90;;;;;;5080867;22;20522;-70
2021/05/07 08:53:32;;;;;;;10.30;1.55;;;11.40;99.90;;;;;;5052036;28;20033;-73
2021/05/07 08:56:05;;;;;;;6.63;1.38;;;11.20;99.90;;;;;;5052573;28;20435;-71
2021/05/07 08:58:31;;;;;;;3.05;0.80;;;10.50;99.90;;;;;;5051681;28;20048;-71
2021/05/07 09:00:58;;;;;;;1.77;0.90;;;9.80;99.90;;;;;;5033964;28;20036;-71
2021/05/07 09:03:24;;;;;;;4.10;0.80;;;9.20;99.90;;;;;;5051935;28;20301;-71
2021/05/07 09:05:50;;;;;;;6.43;1.25;;;8.70;99.90;;;;;;5051725;28;20017;-71
2021/05/07 09:08:16;;;;;;;4.85;1.13;;;8.60;99.90;;;;;;5051930;28;20032;-72
2021/05/07 09:10:45;;;;;;;3.67;2.05;;;8.40;99.90;;;;;;5051680;28;20061;-71
2021/05/07 09:13:13;;;;;;;4.50;0.93;;;8.30;99.90;;;;;;5033987;28;20492;-71
2021/05/07 09:15:43;;;;;;;4.45;1.13;;;8.10;99.90;;;;;;5051658;28;20028;-71
2021/05/07 09:18:10;;;;;;;1.95;0.80;;;7.90;99.90;;;;;;5034780;28;20029;-71
2021/05/07 09:20:41;;;;;;;3.50;0.90;;;7.90;99.90;;;;;;5051985;28;20025;-71
2021/05/07 09:23:12;;;;;;;5.75;1.08;;;7.80;99.90;;;;;;5052190;28;20036;-71
2021/05/07 09:25:43;;;;;;;3.15;1.08;;;7.50;99.90;;;;;;5052170;28;20028;-70
2021/05/07 09:28:18;;;;;;;2.45;1.23;;;7.40;99.90;;;;;;5051965;28;20029;-71
2021/05/07 09:30:45;;;;;;;10.32;1.10;;;7.30;99.90;;;;;;5051881;28;20024;-72
2021/05/07 09:33:13;;;;;;;1.98;0.90;;;7.10;99.90;;;;;;5051475;28;20070;-73
2021/05/07 09:35:40;;;;;;;1.55;0.70;;;7.20;99.90;;;;;;5052124;28;20021;-71
2021/05/07 09:38:15;;;;;;;19.52;1.15;;;7.10;99.90;;;;;;5052163;28;20021;-71
2021/05/07 09:40:43;;;;;;;6.72;0.98;;;7.20;99.90;;;;;;5052195;28;20104;-73
2021/05/07 09:43:20;;;;;;;66.32;4.47;;;7.30;99.90;;;;;;5056053;28;20025;-73
2021/05/07 09:45:50;;;;;;;15.82;1.85;;;7.30;99.90;;;;;;5056399;28;20083;-72
2021/05/07 09:48:25;;;;;;;18.42;3.50;;;7.30;99.90;;;;;;5056336;28;20017;-73
2021/05/07 09:50:58;;;;;;;37.55;3.05;;;7.30;99.90;;;;;;5056008;28;20020;-72
2021/05/07 09:53:29;;;;;;;39.55;2.53;;;7.40;99.90;;;;;;5038244;28;20031;-72
2021/05/07 09:55:59;;;;;;;9.18;1.08;;;7.40;99.90;;;;;;5055949;28;20036;-73
2021/05/07 09:58:25;;;;;;;7.63;0.80;;;7.50;99.90;;;;;;5056016;28;20021;-73
2021/05/07 10:00:50;;;;;;;1.33;0.75;;;7.50;99.90;;;;;;5055850;28;20040;-73
2021/05/07 10:03:16;;;;;;;1.30;0.50;;;7.30;99.90;;;;;;5055901;28;20025;-73
2021/05/07 10:05:42;;;;;;;1.55;0.45;;;7.60;99.90;;;;;;5055839;28;20096;-73
2021/05/07 10:08:08;;;;;;;2.25;0.90;;;7.70;99.90;;;;;;5056214;28;20025;-72
2021/05/07 10:10:37;;;;;;;2.15;0.93;;;7.40;99.90;;;;;;5038304;28;20017;-72
2021/05/07 10:13:06;;;;;;;2.05;0.60;;;7.40;99.90;;;;;;5037709;28;20035;-71
2021/05/07 10:15:36;;;;;;;1.27;0.60;;;7.70;99.90;;;;;;5055543;28;20151;-72
2021/05/07 10:18:03;;;;;;;0.65;0.63;;;7.50;99.90;;;;;;5055533;28;20028;-70
2021/05/07 10:20:31;;;;;;;0.57;0.50;;;7.40;99.90;;;;;;5055418;28;20079;-70
2021/05/07 10:22:58;;;;;;;0.73;0.60;;;7.50;99.90;;;;;;5037457;28;20074;-70
2021/05/07 10:25:24;;;;;;;1.90;1.05;;;7.40;99.90;;;;;;5055253;28;20024;-70
2021/05/07 10:27:53;;;;;;;0.68;0.60;;;7.40;99.90;;;;;;5020961;28;20108;-70
2021/05/07 10:30:32;;;;;;;11.55;7.25;;;7.20;99.90;;;;;;5055224;28;20021;-70
2021/05/07 10:33:04;;;;;;;0.57;0.57;;;7.20;99.90;;;;;;5055134;28;20021;-70
2021/05/07 10:35:34;;;;;;;;;;;7.20;99.90;;;;;;5055575;28;20047;-70
2021/05/07 10:38:11;;;;;;;1.52;0.93;;;7.00;99.90;;;;;;5055031;28;20395;-70
2021/05/07 10:40:37;;;;;;;3.40;1.30;;;7.20;99.90;;;;;;5055016;28;20029;-71
2021/05/07 10:43:04;;;;;;;1.85;1.02;;;7.00;99.90;;;;;;5036937;28;20021;-71
2021/05/07 10:45:48;;;;;;;4.65;0.85;;;7.30;99.90;;;;;;5055182;28;20462;-70
2021/05/07 10:48:49;;;;;;;5.20;2.00;;;7.60;99.90;;;;;;5055128;28;20021;-70
2021/05/07 10:51:15;;;;;;;1.25;0.98;;;7.40;99.90;;;;;;5055006;28;20077;-71
2021/05/07 10:53:41;;;;;;;3.85;1.45;;;7.50;99.90;;;;;;5054645;28;20025;-70
2021/05/07 10:56:14;;;;;;;0.95;0.70;;;7.40;99.90;;;;;;5054833;28;20063;-70
2021/05/07 10:58:40;;;;;;;0.50;0.50;;;7.40;99.90;;;;;;5054625;28;20032;-70
2021/05/07 11:01:23;;;;;;;1.65;0.70;;;7.70;99.90;;;;;;5036884;28;20032;-70
2021/05/07 11:04:06;;;;;;;0.50;0.50;;;8.10;99.90;;;;;;5054516;28;20021;-71
2021/05/07 11:06:38;;;;;;;0.50;0.50;;;8.00;99.90;;;;;;5054578;28;20029;-71
2021/05/07 11:09:23;;;;;;;2.25;0.50;;;7.90;99.90;;;;;;5020055;28;20047;-70
2021/05/07 11:11:51;;;;;;;3.92;1.35;;;7.70;99.90;;;;;;5054425;28;20104;-71
2021/05/07 11:14:22;;;;;;;1.00;0.93;;;7.60;99.90;;;;;;5054383;28;20033;-70
2021/05/07 11:16:49;;;;;;;2.33;1.42;;;7.70;99.90;;;;;;5054179;28;20057;-73
2021/05/07 11:19:28;;;;;;;2.97;0.80;;;7.60;99.90;;;;;;5054290;28;20440;-70
2021/05/07 11:21:56;;;;;;;1.17;0.98;;;7.60;99.90;;;;;;5036546;28;20025;-70
2021/05/07 11:24:32;;;;;;;1.73;1.15;;;7.60;99.90;;;;;;5054227;28;20423;-70
2021/05/07 11:26:59;;;;;;;3.95;1.13;;;7.40;99.90;;;;;;5054041;28;20028;-73
2021/05/07 11:29:28;;;;;;;1.27;0.98;;;7.40;99.90;;;;;;5054106;28;20029;-71
2021/05/07 11:31:53;;;;;;;1.20;1.10;;;7.60;99.90;;;;;;5036280;28;20076;-70
2021/05/07 11:34:26;;;;;;;1.27;0.90;;;7.30;99.90;;;;;;5054071;28;20052;-71
2021/05/07 11:36:59;;;;;;;5.22;1.17;;;7.40;99.90;;;;;;5053930;28;20031;-70
2021/05/07 11:39:26;;;;;;;0.50;0.50;;;7.30;99.90;;;;;;5036113;28;20120;-70
2021/05/07 11:41:52;;;;;;;4.93;0.90;;;7.20;99.90;;;;;;5035861;28;20069;-70
2021/05/07 11:44:18;;;;;;;4.05;0.85;;;7.30;99.90;;;;;;5036071;28;20052;-71
2021/05/07 11:47:07;;;;;;;1.75;0.90;;;7.20;99.90;;;;;;5035675;28;20021;-71
2021/05/07 11:49:37;;;;;;;3.88;1.05;;;7.40;99.90;;;;;;5053821;28;20021;-71
2021/05/07 11:52:04;;;;;;;1.45;1.20;;;7.10;99.90;;;;;;5019113;28;20108;-72
2021/05/07 11:54:45;;;;;;;6.03;5.47;;;7.00;99.90;;;;;;5035662;28;20028;-71
2021/05/07 11:57:12;;;;;;;1.38;0.70;;;6.90;99.90;;;;;;5035812;28;20035;-71
2021/05/07 11:59:46;;;;;;;2.50;1.10;;;6.90;99.90;;;;;;5053653;28;20476;-71
2021/05/07 12:02:21;;;;;;;1.63;1.10;;;6.80;99.90;;;;;;5053653;28;20053;-71
2021/05/07 12:04:47;;;;;;;2.85;0.85;;;6.80;99.90;;;;;;5052675;28;20037;-71
2021/05/07 12:07:27;;;;;;;1.42;0.80;;;6.80;99.90;;;;;;5053326;28;20025;-71
2021/05/07 12:09:55;;;;;;;0.90;0.90;;;6.90;99.90;;;;;;5053532;28;20013;-71
2021/05/07 12:12:22;;;;;;;2.15;1.20;;;7.00;99.90;;;;;;5053577;28;20472;-71
2021/05/07 12:14:49;;;;;;;8.95;0.93;;;7.10;99.90;;;;;;5035263;28;20032;-71
2021/05/07 12:17:19;;;;;;;4.68;1.40;;;7.20;99.90;;;;;;5053195;28;20024;-71
2021/05/07 12:20:04;;;;;;;4.57;1.42;;;7.40;99.90;;;;;;5035201;28;20032;-71
2021/05/07 12:22:32;;;;;;;1.30;1.00;;;7.10;99.90;;;;;;5035580;28;20395;-71
2021/05/07 12:25:09;;;;;;;29.40;2.55;;;7.00;99.90;;;;;;5034759;28;20502;-72
2021/05/07 12:27:35;;;;;;;3.53;1.00;;;7.20;99.90;;;;;;5053428;28;20083;-72
2021/05/07 12:30:00;;;;;;;1.83;1.52;;;7.20;99.90;;;;;;5035269;28;20479;-71
2021/05/07 12:32:26;;;;;;;2.10;1.90;;;7.10;99.90;;;;;;5034997;28;20514;-71
2021/05/07 12:34:59;;;;;;;4.88;1.80;;;7.30;99.90;;;;;;5053013;28;20051;-71
2021/05/07 12:37:36;;;;;;;24.77;2.20;;;7.30;99.90;;;;;;5052804;28;20025;-72
2021/05/07 12:40:02;;;;;;;27.27;2.05;;;7.40;99.90;;;;;;5035038;28;20060;-71
2021/05/07 12:42:27;;;;;;;3.15;2.15;;;7.60;99.90;;;;;;5052844;28;20017;-71
2021/05/07 12:44:53;;;;;;;5.30;2.10;;;7.60;99.90;;;;;;5034621;28;20090;-72
2021/05/07 12:47:19;;;;;;;13.35;3.20;;;7.60;99.90;;;;;;5018599;28;20017;-71
2021/05/07 12:49:44;;;;;;;3.92;1.83;;;7.70;99.90;;;;;;5052876;28;20308;-71
2021/05/07 12:52:10;;;;;;;4.55;2.67;;;7.80;99.90;;;;;;5052563;28;20029;-72
2021/05/07 12:54:36;;;;;;;6.05;2.75;;;7.60;99.90;;;;;;5052730;28;20025;-71
2021/05/07 12:57:02;;;;;;;4.60;2.58;;;7.80;99.90;;;;;;5018234;28;20115;-71
2021/05/07 12:59:27;;;;;;;2.72;2.28;;;8.00;99.90;;;;;;5052529;28;20474;-71